sensor_id;sensor_type;location;lat;lon;timestamp;P1;durP1;ratioP1;P2;durP2;ratioP2
7583;SDS011;3833;41.764;26.204;2023-05-31T00:00:53;10.77;;;7.47;;
7583;SDS011;3833;41.764;26.204;2023-05-31T00:03:19;11.93;;;8.00;;
7583;SDS011;3833;41.764;26.204;2023-05-31T00:05:46;8.83;;;7.27;;
7583;SDS011;3833;41.764;26.204;2023-05-31T00:08:13;11.83;;;7.30;;
7583;SDS011;3833;41.764;26.204;2023-05-31T00:10:40;10.23;;;8.40;;
7583;SDS011;3833;41.764;26.204;2023-05-31T00:13:08;8.77;;;7.87;;
7583;SDS011;3833;41.764;26.204;2023-05-31T00:15:35;11.40;;;8.30;;
7583;SDS011;3833;41.764;26.204;2023-05-31T00:18:02;9.77;;;7.63;;
7583;SDS011;3833;41.764;26.204;2023-05-31T00:20:29;8.33;;;7.50;;
7583;SDS011;3833;41.764;26.204;2023-05-31T00:22:56;13.80;;;7.57;;
7583;SDS011;3833;41.764;26.204;2023-05-31T00:25:23;12.83;;;8.27;;
7583;SDS011;3833;41.764;26.204;2023-05-31T00:27:49;9.20;;;8.27;;
7583;SDS011;3833;41.764;26.204;2023-05-31T00:30:18;14.07;;;8.03;;
7583;SDS011;3833;41.764;26.204;2023-05-31T00:32:44;12.03;;;7.27;;
7583;SDS011;3833;41.764;26.204;2023-05-31T00:35:11;10.33;;;8.10;;
7583;SDS011;3833;41.764;26.204;2023-05-31T00:37:38;11.97;;;7.67;;
7583;SDS011;3833;41.764;26.204;2023-05-31T00:40:05;11.37;;;7.53;;
7583;SDS011;3833;41.764;26.204;2023-05-31T00:42:33;10.40;;;7.57;;
7583;SDS011;3833;41.764;26.204;2023-05-31T00:45:00;8.10;;;7.23;;
7583;SDS011;3833;41.764;26.204;2023-05-31T00:47:30;11.10;;;8.13;;
7583;SDS011;3833;41.764;26.204;2023-05-31T00:49:57;8.60;;;7.77;;
7583;SDS011;3833;41.764;26.204;2023-05-31T00:52:24;9.30;;;8.27;;
7583;SDS011;3833;41.764;26.204;2023-05-31T00:54:52;12.23;;;8.03;;
7583;SDS011;3833;41.764;26.204;2023-05-31T00:57:19;14.53;;;8.43;;
7583;SDS011;3833;41.764;26.204;2023-05-31T00:59:46;10.17;;;7.43;;
7583;SDS011;3833;41.764;26.204;2023-05-31T01:02:13;11.97;;;7.63;;
7583;SDS011;3833;41.764;26.204;2023-05-31T01:04:43;10.43;;;7.70;;
7583;SDS011;3833;41.764;26.204;2023-05-31T01:07:11;9.03;;;7.20;;
7583;SDS011;3833;41.764;26.204;2023-05-31T01:09:38;14.00;;;7.93;;
7583;SDS011;3833;41.764;26.204;2023-05-31T01:12:09;8.33;;;7.23;;
7583;SDS011;3833;41.764;26.204;2023-05-31T01:14:42;12.47;;;7.40;;
7583;SDS011;3833;41.764;26.204;2023-05-31T01:17:17;12.93;;;8.40;;
7583;SDS011;3833;41.764;26.204;2023-05-31T01:19:51;10.50;;;8.03;;
7583;SDS011;3833;41.764;26.204;2023-05-31T01:22:25;11.23;;;8.63;;
7583;SDS011;3833;41.764;26.204;2023-05-31T01:24:59;11.10;;;8.37;;
7583;SDS011;3833;41.764;26.204;2023-05-31T01:27:49;10.30;;;8.07;;
7583;SDS011;3833;41.764;26.204;2023-05-31T01:30:16;10.00;;;8.03;;
7583;SDS011;3833;41.764;26.204;2023-05-31T01:32:43;11.13;;;8.43;;
7583;SDS011;3833;41.764;26.204;2023-05-31T01:35:11;14.10;;;8.10;;
7583;SDS011;3833;41.764;26.204;2023-05-31T01:37:38;11.67;;;8.43;;
7583;SDS011;3833;41.764;26.204;2023-05-31T01:40:05;15.13;;;8.67;;
7583;SDS011;3833;41.764;26.204;2023-05-31T01:42:33;12.67;;;8.63;;
7583;SDS011;3833;41.764;26.204;2023-05-31T01:45:02;10.77;;;8.63;;
7583;SDS011;3833;41.764;26.204;2023-05-31T01:47:30;10.07;;;8.73;;
7583;SDS011;3833;41.764;26.204;2023-05-31T01:49:58;12.83;;;8.37;;
7583;SDS011;3833;41.764;26.204;2023-05-31T01:52:25;10.00;;;8.07;;
7583;SDS011;3833;41.764;26.204;2023-05-31T01:54:52;11.73;;;8.80;;
7583;SDS011;3833;41.764;26.204;2023-05-31T01:57:19;10.57;;;8.23;;
7583;SDS011;3833;41.764;26.204;2023-05-31T01:59:46;9.70;;;7.73;;
7583;SDS011;3833;41.764;26.204;2023-05-31T02:02:15;8.83;;;7.47;;
7583;SDS011;3833;41.764;26.204;2023-05-31T02:04:42;9.17;;;8.13;;
7583;SDS011;3833;41.764;26.204;2023-05-31T02:07:09;10.60;;;8.47;;
7583;SDS011;3833;41.764;26.204;2023-05-31T02:09:37;12.67;;;8.23;;
7583;SDS011;3833;41.764;26.204;2023-05-31T02:12:04;11.23;;;8.10;;
7583;SDS011;3833;41.764;26.204;2023-05-31T02:14:32;12.67;;;8.83;;
7583;SDS011;3833;41.764;26.204;2023-05-31T02:16:59;13.60;;;8.87;;
7583;SDS011;3833;41.764;26.204;2023-05-31T02:19:27;9.73;;;8.40;;
7583;SDS011;3833;41.764;26.204;2023-05-31T02:21:54;12.87;;;8.97;;
7583;SDS011;3833;41.764;26.204;2023-05-31T02:24:21;10.37;;;8.10;;
7583;SDS011;3833;41.764;26.204;2023-05-31T02:26:47;11.97;;;7.90;;
7583;SDS011;3833;41.764;26.204;2023-05-31T02:29:14;9.83;;;7.83;;
7583;SDS011;3833;41.764;26.204;2023-05-31T02:31:41;9.67;;;7.67;;
7583;SDS011;3833;41.764;26.204;2023-05-31T02:34:08;8.97;;;7.93;;
7583;SDS011;3833;41.764;26.204;2023-05-31T02:36:37;12.43;;;7.43;;
7583;SDS011;3833;41.764;26.204;2023-05-31T02:39:05;13.80;;;8.40;;
7583;SDS011;3833;41.764;26.204;2023-05-31T02:41:32;9.10;;;8.20;;
7583;SDS011;3833;41.764;26.204;2023-05-31T02:43:58;9.40;;;8.30;;
7583;SDS011;3833;41.764;26.204;2023-05-31T02:46:25;14.93;;;8.23;;
7583;SDS011;3833;41.764;26.204;2023-05-31T02:48:52;11.07;;;8.47;;
7583;SDS011;3833;41.764;26.204;2023-05-31T02:51:19;13.10;;;8.40;;
7583;SDS011;3833;41.764;26.204;2023-05-31T02:53:47;11.70;;;8.37;;
7583;SDS011;3833;41.764;26.204;2023-05-31T02:56:14;10.33;;;8.07;;
7583;SDS011;3833;41.764;26.204;2023-05-31T02:58:42;9.43;;;7.77;;
7583;SDS011;3833;41.764;26.204;2023-05-31T03:01:08;12.50;;;8.63;;
7583;SDS011;3833;41.764;26.204;2023-05-31T03:03:35;13.67;;;8.70;;
7583;SDS011;3833;41.764;26.204;2023-05-31T03:06:02;11.73;;;8.30;;
7583;SDS011;3833;41.764;26.204;2023-05-31T03:08:30;11.23;;;7.60;;
7583;SDS011;3833;41.764;26.204;2023-05-31T03:10:58;10.23;;;8.40;;
7583;SDS011;3833;41.764;26.204;2023-05-31T03:13:25;8.97;;;7.90;;
7583;SDS011;3833;41.764;26.204;2023-05-31T03:15:52;9.10;;;7.70;;
7583;SDS011;3833;41.764;26.204;2023-05-31T03:18:19;8.57;;;7.37;;
7583;SDS011;3833;41.764;26.204;2023-05-31T03:20:46;10.50;;;7.77;;
7583;SDS011;3833;41.764;26.204;2023-05-31T03:23:13;12.53;;;7.80;;
7583;SDS011;3833;41.764;26.204;2023-05-31T03:25:40;10.40;;;7.83;;
7583;SDS011;3833;41.764;26.204;2023-05-31T03:28:09;11.23;;;7.70;;
7583;SDS011;3833;41.764;26.204;2023-05-31T03:30:35;10.97;;;7.67;;
7583;SDS011;3833;41.764;26.204;2023-05-31T03:33:02;8.60;;;7.47;;
7583;SDS011;3833;41.764;26.204;2023-05-31T03:35:30;8.37;;;7.50;;
7583;SDS011;3833;41.764;26.204;2023-05-31T03:37:57;10.20;;;7.80;;
7583;SDS011;3833;41.764;26.204;2023-05-31T03:40:23;12.87;;;7.03;;
7583;SDS011;3833;41.764;26.204;2023-05-31T03:42:50;13.63;;;7.67;;
7583;SDS011;3833;41.764;26.204;2023-05-31T03:45:19;11.27;;;8.03;;
7583;SDS011;3833;41.764;26.204;2023-05-31T03:47:45;11.23;;;8.13;;
7583;SDS011;3833;41.764;26.204;2023-05-31T03:50:12;10.27;;;7.70;;
7583;SDS011;3833;41.764;26.204;2023-05-31T03:52:39;11.80;;;7.47;;
7583;SDS011;3833;41.764;26.204;2023-05-31T03:55:07;8.53;;;7.60;;
7583;SDS011;3833;41.764;26.204;2023-05-31T03:57:34;9.13;;;8.00;;
7583;SDS011;3833;41.764;26.204;2023-05-31T04:00:01;7.63;;;6.83;;
7583;SDS011;3833;41.764;26.204;2023-05-31T04:02:30;8.97;;;7.53;;
7583;SDS011;3833;41.764;26.204;2023-05-31T04:04:57;8.63;;;7.23;;
7583;SDS011;3833;41.764;26.204;2023-05-31T04:07:24;10.77;;;6.77;;
7583;SDS011;3833;41.764;26.204;2023-05-31T04:09:51;10.50;;;6.33;;
7583;SDS011;3833;41.764;26.204;2023-05-31T04:12:18;9.37;;;6.70;;
7583;SDS011;3833;41.764;26.204;2023-05-31T04:14:45;10.33;;;6.87;;
7583;SDS011;3833;41.764;26.204;2023-05-31T04:17:12;10.77;;;7.23;;
7583;SDS011;3833;41.764;26.204;2023-05-31T04:19:40;7.70;;;5.77;;
7583;SDS011;3833;41.764;26.204;2023-05-31T04:22:07;8.83;;;6.87;;
7583;SDS011;3833;41.764;26.204;2023-05-31T04:24:34;9.97;;;6.93;;
7583;SDS011;3833;41.764;26.204;2023-05-31T04:27:01;7.43;;;6.20;;
7583;SDS011;3833;41.764;26.204;2023-05-31T04:29:31;8.70;;;7.00;;
7583;SDS011;3833;41.764;26.204;2023-05-31T04:31:58;8.87;;;7.00;;
7583;SDS011;3833;41.764;26.204;2023-05-31T04:34:25;6.97;;;6.27;;
7583;SDS011;3833;41.764;26.204;2023-05-31T04:36:53;8.77;;;6.47;;
7583;SDS011;3833;41.764;26.204;2023-05-31T04:39:21;8.80;;;6.23;;
7583;SDS011;3833;41.764;26.204;2023-05-31T04:41:48;9.20;;;6.10;;
7583;SDS011;3833;41.764;26.204;2023-05-31T04:44:15;6.27;;;5.67;;
7583;SDS011;3833;41.764;26.204;2023-05-31T04:46:44;6.37;;;5.43;;
7583;SDS011;3833;41.764;26.204;2023-05-31T04:49:10;6.43;;;5.73;;
7583;SDS011;3833;41.764;26.204;2023-05-31T04:51:38;8.93;;;5.90;;
7583;SDS011;3833;41.764;26.204;2023-05-31T04:54:06;6.17;;;5.57;;
7583;SDS011;3833;41.764;26.204;2023-05-31T04:56:33;6.27;;;4.97;;
7583;SDS011;3833;41.764;26.204;2023-05-31T04:59:00;11.37;;;4.90;;
7583;SDS011;3833;41.764;26.204;2023-05-31T05:01:27;5.60;;;4.30;;
7583;SDS011;3833;41.764;26.204;2023-05-31T05:03:57;5.03;;;4.40;;
7583;SDS011;3833;41.764;26.204;2023-05-31T05:06:25;6.03;;;5.07;;
7583;SDS011;3833;41.764;26.204;2023-05-31T05:08:53;5.93;;;4.43;;
7583;SDS011;3833;41.764;26.204;2023-05-31T05:11:21;6.07;;;4.50;;
7583;SDS011;3833;41.764;26.204;2023-05-31T05:13:48;6.17;;;3.87;;
7583;SDS011;3833;41.764;26.204;2023-05-31T05:16:15;6.70;;;4.57;;
7583;SDS011;3833;41.764;26.204;2023-05-31T05:18:42;8.37;;;4.17;;
7583;SDS011;3833;41.764;26.204;2023-05-31T05:21:09;4.37;;;3.97;;
7583;SDS011;3833;41.764;26.204;2023-05-31T05:23:36;4.90;;;4.40;;
7583;SDS011;3833;41.764;26.204;2023-05-31T05:26:04;5.50;;;4.40;;
7583;SDS011;3833;41.764;26.204;2023-05-31T05:28:33;4.20;;;3.57;;
7583;SDS011;3833;41.764;26.204;2023-05-31T05:31:00;5.80;;;4.10;;
7583;SDS011;3833;41.764;26.204;2023-05-31T05:33:28;4.90;;;4.40;;
7583;SDS011;3833;41.764;26.204;2023-05-31T05:35:55;9.00;;;5.00;;
7583;SDS011;3833;41.764;26.204;2023-05-31T05:38:22;4.20;;;3.80;;
7583;SDS011;3833;41.764;26.204;2023-05-31T05:40:49;5.10;;;4.60;;
7583;SDS011;3833;41.764;26.204;2023-05-31T05:43:16;6.07;;;4.30;;
7583;SDS011;3833;41.764;26.204;2023-05-31T05:45:45;5.97;;;4.57;;
7583;SDS011;3833;41.764;26.204;2023-05-31T05:48:11;5.03;;;4.43;;
7583;SDS011;3833;41.764;26.204;2023-05-31T05:50:39;7.37;;;4.43;;
7583;SDS011;3833;41.764;26.204;2023-05-31T05:53:06;6.63;;;4.43;;
7583;SDS011;3833;41.764;26.204;2023-05-31T05:55:33;6.17;;;4.37;;
7583;SDS011;3833;41.764;26.204;2023-05-31T05:58:01;6.33;;;4.33;;
7583;SDS011;3833;41.764;26.204;2023-05-31T06:00:28;5.17;;;4.60;;
7583;SDS011;3833;41.764;26.204;2023-05-31T06:02:56;5.47;;;4.70;;
7583;SDS011;3833;41.764;26.204;2023-05-31T06:05:23;5.60;;;5.07;;
7583;SDS011;3833;41.764;26.204;2023-05-31T06:07:52;7.57;;;4.53;;
7583;SDS011;3833;41.764;26.204;2023-05-31T06:10:19;4.83;;;4.43;;
7583;SDS011;3833;41.764;26.204;2023-05-31T06:12:46;6.17;;;5.17;;
7583;SDS011;3833;41.764;26.204;2023-05-31T06:15:13;5.40;;;4.77;;
7583;SDS011;3833;41.764;26.204;2023-05-31T06:17:40;6.00;;;5.23;;
7583;SDS011;3833;41.764;26.204;2023-05-31T06:20:09;5.90;;;5.30;;
7583;SDS011;3833;41.764;26.204;2023-05-31T06:22:36;5.83;;;5.23;;
7583;SDS011;3833;41.764;26.204;2023-05-31T06:25:03;5.17;;;4.67;;
7583;SDS011;3833;41.764;26.204;2023-05-31T06:27:31;5.67;;;5.07;;
7583;SDS011;3833;41.764;26.204;2023-05-31T06:29:58;6.23;;;4.80;;
7583;SDS011;3833;41.764;26.204;2023-05-31T06:32:25;6.67;;;5.53;;
7583;SDS011;3833;41.764;26.204;2023-05-31T06:34:52;5.37;;;4.83;;
7583;SDS011;3833;41.764;26.204;2023-05-31T06:37:21;7.23;;;5.27;;
7583;SDS011;3833;41.764;26.204;2023-05-31T06:39:48;8.07;;;5.60;;
7583;SDS011;3833;41.764;26.204;2023-05-31T06:42:15;6.20;;;4.90;;
7583;SDS011;3833;41.764;26.204;2023-05-31T06:44:46;5.73;;;4.77;;
7583;SDS011;3833;41.764;26.204;2023-05-31T06:47:13;5.47;;;4.83;;
7583;SDS011;3833;41.764;26.204;2023-05-31T06:49:40;5.70;;;5.20;;
7583;SDS011;3833;41.764;26.204;2023-05-31T06:52:07;6.17;;;5.07;;
7583;SDS011;3833;41.764;26.204;2023-05-31T06:54:37;8.13;;;5.40;;
7583;SDS011;3833;41.764;26.204;2023-05-31T06:57:04;7.90;;;5.47;;
7583;SDS011;3833;41.764;26.204;2023-05-31T06:59:31;5.63;;;5.13;;
7583;SDS011;3833;41.764;26.204;2023-05-31T07:01:58;6.13;;;4.90;;
7583;SDS011;3833;41.764;26.204;2023-05-31T07:04:25;8.17;;;5.70;;
7583;SDS011;3833;41.764;26.204;2023-05-31T07:06:52;6.30;;;4.77;;
7583;SDS011;3833;41.764;26.204;2023-05-31T07:09:19;7.30;;;5.30;;
7583;SDS011;3833;41.764;26.204;2023-05-31T07:11:47;8.43;;;5.23;;
7583;SDS011;3833;41.764;26.204;2023-05-31T07:14:14;5.03;;;4.53;;
7583;SDS011;3833;41.764;26.204;2023-05-31T07:16:41;5.93;;;4.60;;
7583;SDS011;3833;41.764;26.204;2023-05-31T07:19:08;5.80;;;5.20;;
7583;SDS011;3833;41.764;26.204;2023-05-31T07:21:35;6.83;;;5.13;;
7583;SDS011;3833;41.764;26.204;2023-05-31T07:24:02;8.53;;;5.07;;
7583;SDS011;3833;41.764;26.204;2023-05-31T07:26:29;5.60;;;4.70;;
7583;SDS011;3833;41.764;26.204;2023-05-31T07:28:57;5.97;;;5.33;;
7583;SDS011;3833;41.764;26.204;2023-05-31T07:31:24;5.63;;;5.10;;
7583;SDS011;3833;41.764;26.204;2023-05-31T07:33:51;6.27;;;4.97;;
7583;SDS011;3833;41.764;26.204;2023-05-31T07:36:18;5.53;;;4.80;;
7583;SDS011;3833;41.764;26.204;2023-05-31T07:38:45;5.80;;;5.07;;
7583;SDS011;3833;41.764;26.204;2023-05-31T07:41:12;4.90;;;4.50;;
7583;SDS011;3833;41.764;26.204;2023-05-31T07:43:40;6.87;;;4.70;;
7583;SDS011;3833;41.764;26.204;2023-05-31T07:46:11;6.10;;;5.50;;
7583;SDS011;3833;41.764;26.204;2023-05-31T07:48:38;6.30;;;5.20;;
7583;SDS011;3833;41.764;26.204;2023-05-31T07:51:05;6.23;;;4.83;;
7583;SDS011;3833;41.764;26.204;2023-05-31T07:53:32;5.93;;;4.63;;
7583;SDS011;3833;41.764;26.204;2023-05-31T07:55:59;5.30;;;4.40;;
7583;SDS011;3833;41.764;26.204;2023-05-31T07:58:26;4.70;;;4.27;;
7583;SDS011;3833;41.764;26.204;2023-05-31T08:00:53;5.13;;;4.23;;
7583;SDS011;3833;41.764;26.204;2023-05-31T08:03:21;4.93;;;4.47;;
7583;SDS011;3833;41.764;26.204;2023-05-31T08:05:48;6.57;;;4.90;;
7583;SDS011;3833;41.764;26.204;2023-05-31T08:08:15;5.37;;;4.53;;
7583;SDS011;3833;41.764;26.204;2023-05-31T08:10:42;9.53;;;5.60;;
7583;SDS011;3833;41.764;26.204;2023-05-31T08:13:10;6.03;;;4.93;;
7583;SDS011;3833;41.764;26.204;2023-05-31T08:15:37;5.53;;;5.03;;
7583;SDS011;3833;41.764;26.204;2023-05-31T08:18:04;5.23;;;4.73;;
7583;SDS011;3833;41.764;26.204;2023-05-31T08:20:33;7.13;;;4.60;;
7583;SDS011;3833;41.764;26.204;2023-05-31T08:23:00;5.27;;;4.83;;
7583;SDS011;3833;41.764;26.204;2023-05-31T08:25:27;6.33;;;4.50;;
7583;SDS011;3833;41.764;26.204;2023-05-31T08:27:54;9.73;;;4.77;;
7583;SDS011;3833;41.764;26.204;2023-05-31T08:30:21;9.40;;;4.73;;
7583;SDS011;3833;41.764;26.204;2023-05-31T08:32:47;7.73;;;4.93;;
7583;SDS011;3833;41.764;26.204;2023-05-31T08:35:14;6.80;;;4.63;;
7583;SDS011;3833;41.764;26.204;2023-05-31T08:37:43;5.63;;;4.60;;
7583;SDS011;3833;41.764;26.204;2023-05-31T08:40:10;6.27;;;4.83;;
7583;SDS011;3833;41.764;26.204;2023-05-31T08:42:38;10.53;;;5.10;;
7583;SDS011;3833;41.764;26.204;2023-05-31T08:45:07;6.73;;;4.93;;
7583;SDS011;3833;41.764;26.204;2023-05-31T08:47:36;7.77;;;4.90;;
7583;SDS011;3833;41.764;26.204;2023-05-31T08:50:06;5.17;;;4.70;;
7583;SDS011;3833;41.764;26.204;2023-05-31T08:52:34;5.30;;;4.50;;
7583;SDS011;3833;41.764;26.204;2023-05-31T08:55:02;4.63;;;4.20;;
7583;SDS011;3833;41.764;26.204;2023-05-31T08:57:30;5.77;;;5.00;;
7583;SDS011;3833;41.764;26.204;2023-05-31T08:59:58;5.73;;;4.97;;
7583;SDS011;3833;41.764;26.204;2023-05-31T09:02:30;8.60;;;5.60;;
7583;SDS011;3833;41.764;26.204;2023-05-31T09:04:57;5.93;;;4.77;;
7583;SDS011;3833;41.764;26.204;2023-05-31T09:07:25;6.83;;;4.93;;
7583;SDS011;3833;41.764;26.204;2023-05-31T09:09:51;5.67;;;4.87;;
7583;SDS011;3833;41.764;26.204;2023-05-31T09:12:20;8.13;;;5.07;;
7583;SDS011;3833;41.764;26.204;2023-05-31T09:14:47;5.67;;;5.17;;
7583;SDS011;3833;41.764;26.204;2023-05-31T09:17:14;6.37;;;5.73;;
7583;SDS011;3833;41.764;26.204;2023-05-31T09:19:44;7.53;;;5.23;;
7583;SDS011;3833;41.764;26.204;2023-05-31T09:22:15;6.77;;;5.20;;
7583;SDS011;3833;41.764;26.204;2023-05-31T09:24:48;7.50;;;4.83;;
7583;SDS011;3833;41.764;26.204;2023-05-31T09:27:15;5.67;;;5.03;;
7583;SDS011;3833;41.764;26.204;2023-05-31T09:29:43;7.03;;;5.10;;
7583;SDS011;3833;41.764;26.204;2023-05-31T09:32:17;6.40;;;5.27;;
7583;SDS011;3833;41.764;26.204;2023-05-31T09:34:44;5.83;;;5.33;;
7583;SDS011;3833;41.764;26.204;2023-05-31T09:37:20;5.33;;;4.83;;
7583;SDS011;3833;41.764;26.204;2023-05-31T09:39:54;5.60;;;5.00;;
7583;SDS011;3833;41.764;26.204;2023-05-31T09:42:22;5.97;;;4.83;;
7583;SDS011;3833;41.764;26.204;2023-05-31T09:44:52;6.10;;;5.27;;
7583;SDS011;3833;41.764;26.204;2023-05-31T09:47:22;6.83;;;4.80;;
7583;SDS011;3833;41.764;26.204;2023-05-31T09:49:49;6.37;;;5.07;;
7583;SDS011;3833;41.764;26.204;2023-05-31T09:52:19;6.57;;;5.53;;
7583;SDS011;3833;41.764;26.204;2023-05-31T09:54:50;4.73;;;4.27;;
7583;SDS011;3833;41.764;26.204;2023-05-31T09:57:28;4.93;;;4.40;;
7583;SDS011;3833;41.764;26.204;2023-05-31T09:59:57;5.20;;;4.70;;
7583;SDS011;3833;41.764;26.204;2023-05-31T10:02:25;6.73;;;5.27;;
7583;SDS011;3833;41.764;26.204;2023-05-31T10:04:53;5.80;;;4.77;;
7583;SDS011;3833;41.764;26.204;2023-05-31T10:07:21;5.33;;;4.80;;
7583;SDS011;3833;41.764;26.204;2023-05-31T10:09:49;5.73;;;5.13;;
7583;SDS011;3833;41.764;26.204;2023-05-31T10:12:16;6.13;;;4.97;;
7583;SDS011;3833;41.764;26.204;2023-05-31T10:14:44;5.67;;;4.67;;
7583;SDS011;3833;41.764;26.204;2023-05-31T10:17:17;5.70;;;4.80;;
7583;SDS011;3833;41.764;26.204;2023-05-31T10:19:48;5.13;;;4.60;;
7583;SDS011;3833;41.764;26.204;2023-05-31T10:22:26;5.70;;;4.87;;
7583;SDS011;3833;41.764;26.204;2023-05-31T10:24:57;5.70;;;4.27;;
7583;SDS011;3833;41.764;26.204;2023-05-31T10:27:27;6.40;;;5.27;;
7583;SDS011;3833;41.764;26.204;2023-05-31T10:29:56;5.97;;;4.80;;
7583;SDS011;3833;41.764;26.204;2023-05-31T10:32:32;5.40;;;4.90;;
7583;SDS011;3833;41.764;26.204;2023-05-31T10:35:00;7.57;;;5.30;;
7583;SDS011;3833;41.764;26.204;2023-05-31T10:37:27;6.70;;;6.00;;
7583;SDS011;3833;41.764;26.204;2023-05-31T10:39:55;6.20;;;5.17;;
7583;SDS011;3833;41.764;26.204;2023-05-31T10:42:27;7.37;;;5.00;;
7583;SDS011;3833;41.764;26.204;2023-05-31T10:44:57;6.73;;;5.53;;
7583;SDS011;3833;41.764;26.204;2023-05-31T10:47:28;5.73;;;5.20;;
7583;SDS011;3833;41.764;26.204;2023-05-31T10:50:01;7.00;;;5.10;;
7583;SDS011;3833;41.764;26.204;2023-05-31T10:52:30;6.37;;;5.10;;
7583;SDS011;3833;41.764;26.204;2023-05-31T10:57:42;6.67;;;5.50;;
7583;SDS011;3833;41.764;26.204;2023-05-31T11:00:09;7.87;;;6.00;;
7583;SDS011;3833;41.764;26.204;2023-05-31T11:02:38;6.10;;;5.50;;
7583;SDS011;3833;41.764;26.204;2023-05-31T11:05:18;10.80;;;5.17;;
7583;SDS011;3833;41.764;26.204;2023-05-31T11:07:47;5.37;;;4.87;;
7583;SDS011;3833;41.764;26.204;2023-05-31T11:10:24;6.27;;;5.03;;
7583;SDS011;3833;41.764;26.204;2023-05-31T11:12:55;6.90;;;5.30;;
7583;SDS011;3833;41.764;26.204;2023-05-31T11:15:22;8.20;;;4.80;;
7583;SDS011;3833;41.764;26.204;2023-05-31T11:17:54;7.00;;;5.63;;
7583;SDS011;3833;41.764;26.204;2023-05-31T11:20:21;5.47;;;4.97;;
7583;SDS011;3833;41.764;26.204;2023-05-31T11:22:54;7.20;;;5.10;;
7583;SDS011;3833;41.764;26.204;2023-05-31T11:26:15;7.53;;;5.33;;
7583;SDS011;3833;41.764;26.204;2023-05-31T11:28:59;7.27;;;5.10;;
7583;SDS011;3833;41.764;26.204;2023-05-31T11:34:25;10.43;;;5.17;;
7583;SDS011;3833;41.764;26.204;2023-05-31T11:36:53;8.07;;;5.27;;
7583;SDS011;3833;41.764;26.204;2023-05-31T11:39:20;7.60;;;4.80;;
7583;SDS011;3833;41.764;26.204;2023-05-31T11:41:47;7.00;;;5.20;;
7583;SDS011;3833;41.764;26.204;2023-05-31T11:44:14;6.13;;;5.10;;
7583;SDS011;3833;41.764;26.204;2023-05-31T11:46:55;5.97;;;4.73;;
7583;SDS011;3833;41.764;26.204;2023-05-31T11:49:27;5.60;;;5.10;;
7583;SDS011;3833;41.764;26.204;2023-05-31T11:51:54;5.10;;;4.70;;
7583;SDS011;3833;41.764;26.204;2023-05-31T11:54:25;7.47;;;5.37;;
7583;SDS011;3833;41.764;26.204;2023-05-31T11:56:55;6.30;;;5.23;;
7583;SDS011;3833;41.764;26.204;2023-05-31T11:59:25;5.40;;;4.90;;
7583;SDS011;3833;41.764;26.204;2023-05-31T12:01:56;12.27;;;5.30;;
7583;SDS011;3833;41.764;26.204;2023-05-31T12:04:33;6.83;;;5.37;;
7583;SDS011;3833;41.764;26.204;2023-05-31T12:07:02;5.30;;;4.47;;
7583;SDS011;3833;41.764;26.204;2023-05-31T12:09:30;7.37;;;4.93;;
7583;SDS011;3833;41.764;26.204;2023-05-31T12:11:57;6.27;;;5.00;;
7583;SDS011;3833;41.764;26.204;2023-05-31T12:14:24;5.43;;;4.17;;
7583;SDS011;3833;41.764;26.204;2023-05-31T12:16:51;6.67;;;5.07;;
7583;SDS011;3833;41.764;26.204;2023-05-31T12:19:18;5.03;;;4.53;;
7583;SDS011;3833;41.764;26.204;2023-05-31T12:21:47;5.17;;;4.43;;
7583;SDS011;3833;41.764;26.204;2023-05-31T12:24:14;5.67;;;4.37;;
7583;SDS011;3833;41.764;26.204;2023-05-31T12:26:43;6.07;;;4.53;;
7583;SDS011;3833;41.764;26.204;2023-05-31T12:29:11;4.70;;;4.00;;
7583;SDS011;3833;41.764;26.204;2023-05-31T12:31:39;4.50;;;4.10;;
7583;SDS011;3833;41.764;26.204;2023-05-31T12:34:06;4.30;;;3.87;;
7583;SDS011;3833;41.764;26.204;2023-05-31T12:36:38;10.47;;;4.80;;
7583;SDS011;3833;41.764;26.204;2023-05-31T12:39:11;7.47;;;4.00;;
7583;SDS011;3833;41.764;26.204;2023-05-31T12:41:44;5.07;;;4.57;;
7583;SDS011;3833;41.764;26.204;2023-05-31T12:44:12;5.37;;;4.10;;
7583;SDS011;3833;41.764;26.204;2023-05-31T12:46:41;5.23;;;4.00;;
7583;SDS011;3833;41.764;26.204;2023-05-31T12:49:13;4.13;;;3.73;;
7583;SDS011;3833;41.764;26.204;2023-05-31T12:51:41;4.10;;;3.70;;
7583;SDS011;3833;41.764;26.204;2023-05-31T12:54:14;5.47;;;3.97;;
7583;SDS011;3833;41.764;26.204;2023-05-31T12:56:42;4.30;;;3.73;;
7583;SDS011;3833;41.764;26.204;2023-05-31T12:59:09;5.10;;;3.50;;
7583;SDS011;3833;41.764;26.204;2023-05-31T13:01:36;7.30;;;3.60;;
7583;SDS011;3833;41.764;26.204;2023-05-31T13:04:05;4.00;;;3.60;;
7583;SDS011;3833;41.764;26.204;2023-05-31T13:06:32;4.00;;;3.60;;
7583;SDS011;3833;41.764;26.204;2023-05-31T13:09:00;4.80;;;3.80;;
7583;SDS011;3833;41.764;26.204;2023-05-31T13:11:32;4.80;;;3.57;;
7583;SDS011;3833;41.764;26.204;2023-05-31T13:14:00;6.13;;;3.87;;
7583;SDS011;3833;41.764;26.204;2023-05-31T13:16:28;4.23;;;3.83;;
7583;SDS011;3833;41.764;26.204;2023-05-31T13:18:55;3.93;;;3.53;;
7583;SDS011;3833;41.764;26.204;2023-05-31T13:21:22;4.27;;;3.87;;
7583;SDS011;3833;41.764;26.204;2023-05-31T13:23:50;6.03;;;3.80;;
7583;SDS011;3833;41.764;26.204;2023-05-31T13:26:17;6.13;;;3.70;;
7583;SDS011;3833;41.764;26.204;2023-05-31T13:28:45;4.60;;;3.80;;
7583;SDS011;3833;41.764;26.204;2023-05-31T13:31:12;3.93;;;3.43;;
7583;SDS011;3833;41.764;26.204;2023-05-31T13:33:39;6.13;;;4.23;;
7583;SDS011;3833;41.764;26.204;2023-05-31T13:36:06;9.43;;;4.23;;
7583;SDS011;3833;41.764;26.204;2023-05-31T13:38:33;7.20;;;4.37;;
7583;SDS011;3833;41.764;26.204;2023-05-31T13:41:00;4.47;;;4.00;;
7583;SDS011;3833;41.764;26.204;2023-05-31T13:43:29;4.83;;;3.73;;
7583;SDS011;3833;41.764;26.204;2023-05-31T13:45:58;4.87;;;3.93;;
7583;SDS011;3833;41.764;26.204;2023-05-31T13:48:26;6.33;;;4.00;;
7583;SDS011;3833;41.764;26.204;2023-05-31T13:50:53;5.67;;;4.43;;
7583;SDS011;3833;41.764;26.204;2023-05-31T13:53:22;5.97;;;4.40;;
7583;SDS011;3833;41.764;26.204;2023-05-31T13:55:49;5.60;;;4.50;;
7583;SDS011;3833;41.764;26.204;2023-05-31T13:58:16;5.07;;;3.87;;
7583;SDS011;3833;41.764;26.204;2023-05-31T14:00:43;7.70;;;3.90;;
7583;SDS011;3833;41.764;26.204;2023-05-31T14:03:12;6.33;;;4.00;;
7583;SDS011;3833;41.764;26.204;2023-05-31T14:05:39;5.30;;;4.27;;
7583;SDS011;3833;41.764;26.204;2023-05-31T14:08:06;5.70;;;4.33;;
7583;SDS011;3833;41.764;26.204;2023-05-31T14:10:33;4.87;;;4.30;;
7583;SDS011;3833;41.764;26.204;2023-05-31T14:13:00;6.63;;;4.20;;
7583;SDS011;3833;41.764;26.204;2023-05-31T14:15:28;4.40;;;4.00;;
7583;SDS011;3833;41.764;26.204;2023-05-31T14:17:55;5.50;;;4.10;;
7583;SDS011;3833;41.764;26.204;2023-05-31T14:20:23;7.07;;;4.50;;
7583;SDS011;3833;41.764;26.204;2023-05-31T14:22:50;6.60;;;4.50;;
7583;SDS011;3833;41.764;26.204;2023-05-31T14:25:17;16.03;;;10.83;;
7583;SDS011;3833;41.764;26.204;2023-05-31T14:27:44;18.20;;;13.63;;
7583;SDS011;3833;41.764;26.204;2023-05-31T14:30:11;10.33;;;7.30;;
7583;SDS011;3833;41.764;26.204;2023-05-31T14:32:38;7.53;;;5.63;;
7583;SDS011;3833;41.764;26.204;2023-05-31T14:35:07;7.60;;;5.87;;
7583;SDS011;3833;41.764;26.204;2023-05-31T14:37:38;7.03;;;5.23;;
7583;SDS011;3833;41.764;26.204;2023-05-31T14:40:05;4.70;;;3.97;;
7583;SDS011;3833;41.764;26.204;2023-05-31T14:42:33;4.90;;;4.50;;
7583;SDS011;3833;41.764;26.204;2023-05-31T14:45:00;4.20;;;3.80;;
7583;SDS011;3833;41.764;26.204;2023-05-31T14:47:29;9.87;;;4.47;;
7583;SDS011;3833;41.764;26.204;2023-05-31T14:49:56;3.83;;;3.53;;
7583;SDS011;3833;41.764;26.204;2023-05-31T14:52:23;5.77;;;3.87;;
7583;SDS011;3833;41.764;26.204;2023-05-31T14:54:52;6.70;;;4.23;;
7583;SDS011;3833;41.764;26.204;2023-05-31T14:57:19;4.50;;;3.90;;
7583;SDS011;3833;41.764;26.204;2023-05-31T14:59:46;5.53;;;4.30;;
7583;SDS011;3833;41.764;26.204;2023-05-31T15:02:13;4.27;;;3.80;;
7583;SDS011;3833;41.764;26.204;2023-05-31T15:04:40;5.17;;;3.97;;
7583;SDS011;3833;41.764;26.204;2023-05-31T15:07:07;4.13;;;3.57;;
7583;SDS011;3833;41.764;26.204;2023-05-31T15:09:34;5.07;;;3.67;;